createdAt,value
2022-12-26T00:02:43.518Z,7.55
2022-12-26T00:07:46.234Z,7.37
2022-12-26T00:12:48.509Z,7.63
2022-12-26T00:17:50.659Z,7.69
2022-12-26T00:22:54.893Z,7.71
2022-12-26T00:27:57.548Z,7.64
2022-12-26T00:32:59.746Z,7.52
2022-12-26T00:38:02.496Z,7.46
2022-12-26T00:43:04.643Z,7.41
2022-12-26T00:48:06.823Z,7.34
2022-12-26T00:53:08.983Z,7.37
2022-12-26T00:58:11.192Z,7.25
2022-12-26T01:03:14.372Z,7.24
2022-12-26T01:08:24.549Z,7.07
2022-12-26T01:13:27.256Z,7.07
2022-12-26T01:18:29.816Z,7.28
2022-12-26T01:23:32.022Z,7.16
2022-12-26T01:28:34.165Z,7.07
2022-12-26T01:33:36.879Z,6.92
2022-12-26T01:38:39.404Z,7.07
2022-12-26T01:43:59.773Z,7.09
2022-12-26T01:49:09.960Z,6.78
2022-12-26T01:54:39.424Z,7.03
2022-12-26T01:59:39.044Z,7.06
2022-12-26T02:05:05.006Z,7.29
2022-12-26T02:10:14.039Z,7.25
2022-12-26T02:15:18.014Z,7.13
2022-12-26T02:20:25.175Z,7.29
2022-12-26T02:25:58.080Z,7.23
2022-12-26T02:31:23.961Z,6.91
2022-12-26T02:36:47.498Z,7.06
2022-12-26T02:42:27.164Z,6.98
2022-12-26T02:47:43.971Z,6.67
2022-12-26T02:53:07.232Z,6.76
2022-12-26T02:58:41.169Z,6.56
2022-12-26T03:04:03.534Z,6.60
2022-12-26T03:09:33.520Z,6.55
2022-12-26T03:14:56.407Z,6.51
2022-12-26T03:20:06.485Z,6.67
2022-12-26T03:25:46.181Z,6.48
2022-12-26T03:30:51.344Z,6.47
2022-12-26T03:35:59.243Z,6.27
2022-12-26T03:41:34.033Z,6.34
2022-12-26T03:47:39.578Z,6.31
2022-12-26T03:53:28.915Z,6.44
2022-12-26T03:58:58.338Z,6.33
2022-12-26T04:04:21.186Z,6.19
2022-12-26T04:10:07.174Z,6.31
2022-12-26T04:15:56.948Z,6.35
2022-12-26T04:21:36.179Z,6.34
2022-12-26T04:27:02.340Z,6.25
2022-12-26T04:32:34.368Z,5.94
2022-12-26T04:38:06.878Z,5.96
2022-12-26T04:43:46.712Z,5.85
2022-12-26T04:49:12.028Z,6.05
2022-12-26T04:54:14.248Z,6.06
2022-12-26T04:59:16.729Z,5.75
2022-12-26T05:04:38.395Z,6.04
2022-12-26T05:09:40.592Z,5.90
2022-12-26T05:14:47.030Z,5.96
2022-12-26T05:20:07.862Z,5.85
2022-12-26T05:25:37.565Z,5.79
2022-12-26T05:30:43.955Z,5.70
2022-12-26T05:35:46.219Z,5.76
2022-12-26T05:40:48.368Z,5.77
2022-12-26T05:45:50.484Z,5.63
2022-12-26T05:50:52.776Z,5.71
2022-12-26T05:55:55.023Z,5.75
2022-12-26T06:01:09.307Z,5.50
2022-12-26T06:06:11.629Z,5.70
2022-12-26T06:11:14.458Z,5.76
2022-12-26T06:16:18.293Z,5.30
2022-12-26T06:21:21.331Z,5.89
2022-12-26T06:26:23.487Z,5.71
2022-12-26T06:31:25.933Z,5.87
2022-12-26T06:36:30.666Z,6.01
2022-12-26T06:41:32.881Z,5.72
2022-12-26T06:46:36.778Z,5.51
2022-12-26T06:51:39.099Z,5.53
2022-12-26T06:56:41.285Z,5.97
2022-12-26T07:01:43.653Z,6.05
2022-12-26T07:06:45.923Z,5.99
2022-12-26T07:11:50.688Z,6.62
2022-12-26T07:16:52.961Z,6.59
2022-12-26T07:21:55.240Z,6.90
2022-12-26T07:26:59.273Z,7.16
2022-12-26T07:37:32.373Z,7.51
2022-12-26T07:42:37.698Z,7.60
2022-12-26T07:47:40.746Z,7.63
2022-12-26T07:52:42.926Z,7.94
2022-12-26T07:57:48.935Z,8.26
2022-12-26T08:08:17.175Z,8.55
2022-12-26T08:13:19.304Z,8.47
2022-12-26T08:18:21.495Z,8.99
2022-12-26T08:23:26.342Z,9.06
2022-12-26T08:28:28.486Z,9.13
2022-12-26T08:33:30.620Z,9.46
2022-12-26T08:38:34.115Z,9.66
2022-12-26T08:44:16.516Z,9.90
2022-12-26T08:48:58.927Z,10.01
2022-12-26T08:54:01.166Z,9.92
2022-12-26T08:59:03.327Z,10.12
2022-12-26T09:04:07.460Z,10.33
2022-12-26T09:09:12.436Z,10.38
2022-12-26T09:14:14.649Z,10.44
2022-12-26T09:19:19.697Z,10.62
2022-12-26T09:24:23.129Z,10.92
2022-12-26T09:29:25.348Z,11.00
2022-12-26T09:34:27.565Z,11.14
2022-12-26T09:39:29.852Z,11.21
2022-12-26T09:44:55.322Z,11.26
2022-12-26T09:50:20.654Z,11.45
2022-12-26T09:55:44.110Z,11.70
2022-12-26T10:01:00.588Z,11.82
2022-12-26T10:06:11.167Z,11.97
2022-12-26T10:11:38.934Z,12.10
2022-12-26T10:17:08.719Z,12.22
2022-12-26T10:22:57.420Z,12.33
2022-12-26T10:28:00.880Z,12.22
2022-12-26T10:33:12.088Z,12.33
2022-12-26T10:38:40.767Z,12.37
2022-12-26T10:43:45.353Z,12.64
2022-12-26T10:48:48.748Z,12.76
2022-12-26T10:53:53.123Z,12.79
2022-12-26T10:59:05.506Z,12.85
2022-12-26T11:04:18.855Z,13.04
2022-12-26T11:09:40.092Z,13.21
2022-12-26T11:14:47.208Z,13.27
2022-12-26T11:19:49.531Z,13.53
2022-12-26T11:25:10.186Z,13.60
2022-12-26T11:30:15.321Z,13.64
2022-12-26T11:35:23.480Z,13.71
2022-12-26T11:40:32.608Z,13.84
2022-12-26T11:45:44.049Z,13.73
2022-12-26T11:50:47.165Z,13.93
2022-12-26T11:56:07.658Z,14.12
2022-12-26T12:01:16.078Z,14.49
2022-12-26T12:06:36.797Z,14.62
2022-12-26T12:12:06.522Z,14.83
2022-12-26T12:17:14.521Z,14.86
2022-12-26T12:22:38.032Z,15.01
2022-12-26T12:28:09.309Z,15.07
2022-12-26T12:33:20.363Z,15.45
2022-12-26T12:38:36.910Z,15.12
2022-12-26T12:43:39.081Z,15.65
2022-12-26T12:48:54.722Z,15.75
2022-12-26T12:54:22.946Z,15.86
2022-12-26T12:59:38.833Z,15.83
2022-12-26T13:04:48.367Z,16.10
2022-12-26T13:09:56.744Z,16.09
2022-12-26T13:15:24.541Z,16.40
2022-12-26T13:20:37.434Z,16.49
2022-12-26T13:25:50.813Z,16.59
2022-12-26T13:30:57.239Z,16.62
2022-12-26T13:36:07.466Z,16.69
2022-12-26T13:41:36.766Z,16.85
2022-12-26T13:46:41.592Z,16.99
2022-12-26T13:51:50.089Z,17.08
2022-12-26T13:57:16.121Z,17.06
2022-12-26T14:02:58.744Z,17.34
2022-12-26T14:08:36.200Z,17.51
2022-12-26T14:14:09.053Z,17.77
2022-12-26T14:19:36.717Z,18.08
2022-12-26T14:25:03.162Z,18.43
2022-12-26T14:30:42.638Z,18.65
2022-12-26T14:36:01.897Z,18.86
2022-12-26T14:41:09.403Z,18.96
2022-12-26T14:46:33.078Z,18.86
2022-12-26T14:51:38.559Z,18.64
2022-12-26T14:56:40.946Z,18.32
2022-12-26T15:01:48.024Z,17.46
2022-12-26T15:07:01.978Z,17.05
2022-12-26T15:12:31.808Z,16.36
2022-12-26T15:17:49.226Z,15.88
2022-12-26T15:23:03.628Z,15.48
2022-12-26T15:28:42.213Z,15.08
2022-12-26T15:33:52.955Z,14.44
2022-12-26T15:39:03.922Z,14.46
2022-12-26T15:44:23.979Z,14.27
2022-12-26T15:49:32.313Z,13.97
2022-12-26T15:55:13.200Z,13.58
2022-12-26T16:00:24.198Z,13.34
2022-12-26T16:06:05.281Z,13.09
2022-12-26T16:11:21.441Z,13.12
2022-12-26T16:16:31.505Z,12.96
2022-12-26T16:21:52.305Z,12.78
2022-12-26T16:26:55.772Z,12.45
2022-12-26T16:32:08.088Z,12.61
2022-12-26T16:37:20.500Z,12.28
2022-12-26T16:42:31.381Z,12.24
2022-12-26T16:47:35.335Z,11.97
2022-12-26T16:52:46.202Z,12.12
2022-12-26T16:57:54.959Z,12.00
2022-12-26T17:03:00.560Z,11.72
2022-12-26T17:08:04.884Z,11.41
2022-12-26T17:13:10.157Z,11.45
2022-12-26T17:18:47.961Z,11.56
2022-12-26T17:24:15.589Z,11.38
2022-12-26T17:29:55.272Z,11.53
2022-12-26T17:35:01.256Z,11.33
2022-12-26T17:40:20.696Z,11.13
2022-12-26T17:45:26.705Z,11.10
2022-12-26T17:50:35.773Z,10.88
2022-12-26T17:55:38.132Z,10.68
2022-12-26T18:00:41.944Z,10.63
2022-12-26T18:05:46.485Z,10.60
2022-12-26T18:10:49.035Z,10.50
2022-12-26T18:15:53.472Z,10.65
2022-12-26T18:20:55.761Z,10.37
2022-12-26T18:26:02.037Z,10.51
2022-12-26T18:31:04.591Z,10.13
2022-12-26T18:36:07.919Z,10.15
2022-12-26T18:41:20.786Z,10.12
2022-12-26T18:46:25.951Z,10.02
2022-12-26T18:51:31.706Z,9.96
2022-12-26T18:56:34.469Z,9.83
2022-12-26T19:01:37.508Z,9.82
2022-12-26T19:06:41.469Z,9.97
2022-12-26T19:11:44.388Z,9.74
2022-12-26T19:16:47.416Z,9.86
2022-12-26T19:21:49.772Z,9.75
2022-12-26T19:26:51.959Z,9.87
2022-12-26T19:31:54.222Z,9.68
2022-12-26T19:36:56.564Z,9.59
2022-12-26T19:41:58.867Z,9.26
2022-12-26T19:47:10.971Z,9.51
2022-12-26T19:52:14.739Z,9.49
2022-12-26T19:57:17.627Z,9.42
2022-12-26T20:02:20.536Z,9.41
2022-12-26T20:07:23.466Z,9.48
2022-12-26T20:12:26.641Z,9.28
2022-12-26T20:17:30.150Z,9.18
2022-12-26T20:22:33.548Z,9.44
2022-12-26T20:27:36.800Z,9.30
2022-12-26T20:32:39.504Z,9.10
2022-12-26T20:37:41.686Z,9.11
2022-12-26T20:42:43.819Z,9.15
2022-12-26T20:47:46.052Z,8.92
2022-12-26T20:52:48.248Z,8.81
2022-12-26T20:57:50.580Z,8.54
2022-12-26T21:02:53.841Z,8.77
2022-12-26T21:07:56.435Z,8.70
2022-12-26T21:12:59.309Z,8.55
2022-12-26T21:18:01.790Z,8.73
2022-12-26T21:23:04.066Z,8.47
2022-12-26T21:28:06.236Z,8.46
2022-12-26T21:33:08.445Z,8.44
2022-12-26T21:38:10.669Z,8.34
2022-12-26T21:43:12.893Z,8.19
2022-12-26T21:48:16.286Z,8.18
2022-12-26T21:53:18.438Z,8.21
2022-12-26T21:58:20.904Z,8.25
2022-12-26T22:03:41.829Z,8.06
2022-12-26T22:08:45.329Z,8.11
2022-12-26T22:13:49.875Z,8.03
2022-12-26T22:18:52.230Z,7.89
2022-12-26T22:23:54.600Z,7.79
2022-12-26T22:28:58.002Z,8.00
2022-12-26T22:34:02.696Z,7.99
2022-12-26T22:39:04.885Z,7.67
2022-12-26T22:44:07.261Z,7.75
2022-12-26T22:49:09.553Z,7.84
2022-12-26T22:54:11.663Z,7.77
2022-12-26T22:59:27.498Z,7.66
2022-12-26T23:04:36.345Z,7.68
2022-12-26T23:09:38.603Z,7.66
2022-12-26T23:14:40.952Z,7.62
2022-12-26T23:20:11.098Z,7.73
2022-12-26T23:25:13.413Z,7.62
2022-12-26T23:30:18.437Z,7.17
2022-12-26T23:35:22.537Z,7.47
2022-12-26T23:40:24.881Z,7.47
2022-12-26T23:45:27.050Z,7.28
2022-12-26T23:50:29.424Z,7.36
2022-12-26T23:55:31.683Z,7.43
